sensor_id;sensor_type;location;lat;lon;timestamp;temperature;humidity
20288;DHT22;10303;51.960;8.372;2024-01-30T00:02:14;9.10;99.90
20288;DHT22;10303;51.960;8.372;2024-01-30T00:04:40;9.00;99.90
20288;DHT22;10303;51.960;8.372;2024-01-30T00:07:06;9.00;99.90
20288;DHT22;10303;51.960;8.372;2024-01-30T00:09:33;9.00;99.90
20288;DHT22;10303;51.960;8.372;2024-01-30T00:11:59;8.90;99.90
20288;DHT22;10303;51.960;8.372;2024-01-30T00:14:25;9.00;99.90
20288;DHT22;10303;51.960;8.372;2024-01-30T00:16:51;9.00;99.90
20288;DHT22;10303;51.960;8.372;2024-01-30T00:19:17;9.00;99.90
20288;DHT22;10303;51.960;8.372;2024-01-30T00:21:43;8.90;99.90
20288;DHT22;10303;51.960;8.372;2024-01-30T00:24:09;8.90;99.90
20288;DHT22;10303;51.960;8.372;2024-01-30T00:26:35;8.90;99.90
20288;DHT22;10303;51.960;8.372;2024-01-30T00:29:01;8.90;99.90
20288;DHT22;10303;51.960;8.372;2024-01-30T00:31:27;8.90;99.90
20288;DHT22;10303;51.960;8.372;2024-01-30T00:33:53;9.00;99.90
20288;DHT22;10303;51.960;8.372;2024-01-30T00:36:19;8.80;99.90
20288;DHT22;10303;51.960;8.372;2024-01-30T00:38:45;8.80;99.90
20288;DHT22;10303;51.960;8.372;2024-01-30T00:41:11;8.80;99.90
20288;DHT22;10303;51.960;8.372;2024-01-30T00:43:37;8.80;99.90
20288;DHT22;10303;51.960;8.372;2024-01-30T00:46:03;8.80;99.90
20288;DHT22;10303;51.960;8.372;2024-01-30T00:48:29;8.70;99.90
20288;DHT22;10303;51.960;8.372;2024-01-30T00:50:55;8.70;99.90
20288;DHT22;10303;51.960;8.372;2024-01-30T00:53:21;8.70;99.90
20288;DHT22;10303;51.960;8.372;2024-01-30T00:55:47;8.70;99.90
20288;DHT22;10303;51.960;8.372;2024-01-30T00:58:13;8.80;99.90
20288;DHT22;10303;51.960;8.372;2024-01-30T01:00:39;8.60;99.90
20288;DHT22;10303;51.960;8.372;2024-01-30T01:03:05;8.70;99.90
20288;DHT22;10303;51.960;8.372;2024-01-30T01:05:31;8.60;99.90
20288;DHT22;10303;51.960;8.372;2024-01-30T01:07:57;8.60;99.90
20288;DHT22;10303;51.960;8.372;2024-01-30T01:10:23;8.60;99.90
20288;DHT22;10303;51.960;8.372;2024-01-30T01:12:49;8.60;99.90
20288;DHT22;10303;51.960;8.372;2024-01-30T01:15:15;8.60;99.90
20288;DHT22;10303;51.960;8.372;2024-01-30T01:17:41;8.60;99.90
20288;DHT22;10303;51.960;8.372;2024-01-30T01:20:08;8.80;99.90
20288;DHT22;10303;51.960;8.372;2024-01-30T01:22:36;8.60;99.90
20288;DHT22;10303;51.960;8.372;2024-01-30T01:25:04;8.60;99.90
20288;DHT22;10303;51.960;8.372;2024-01-30T01:27:34;8.60;99.90
20288;DHT22;10303;51.960;8.372;2024-01-30T01:30:04;8.80;99.90
20288;DHT22;10303;51.960;8.372;2024-01-30T01:32:31;8.60;99.90
20288;DHT22;10303;51.960;8.372;2024-01-30T01:34:57;8.60;99.90
20288;DHT22;10303;51.960;8.372;2024-01-30T01:37:23;8.60;99.90
20288;DHT22;10303;51.960;8.372;2024-01-30T01:39:52;8.60;99.90
20288;DHT22;10303;51.960;8.372;2024-01-30T01:42:18;8.60;99.90
20288;DHT22;10303;51.960;8.372;2024-01-30T01:44:44;8.60;99.90
20288;DHT22;10303;51.960;8.372;2024-01-30T01:47:10;8.60;99.90
20288;DHT22;10303;51.960;8.372;2024-01-30T01:49:36;8.60;99.90
20288;DHT22;10303;51.960;8.372;2024-01-30T01:52:03;8.60;99.90
20288;DHT22;10303;51.960;8.372;2024-01-30T01:54:30;8.60;99.90
20288;DHT22;10303;51.960;8.372;2024-01-30T01:56:56;8.60;99.90
20288;DHT22;10303;51.960;8.372;2024-01-30T01:59:23;8.60;99.90
20288;DHT22;10303;51.960;8.372;2024-01-30T02:01:51;8.60;99.90
20288;DHT22;10303;51.960;8.372;2024-01-30T02:04:18;8.70;99.90
20288;DHT22;10303;51.960;8.372;2024-01-30T02:06:44;8.70;99.90
20288;DHT22;10303;51.960;8.372;2024-01-30T02:09:10;8.70;99.90
20288;DHT22;10303;51.960;8.372;2024-01-30T02:11:36;8.80;99.90
20288;DHT22;10303;51.960;8.372;2024-01-30T02:14:04;8.70;99.90
20288;DHT22;10303;51.960;8.372;2024-01-30T02:16:34;8.70;99.90
20288;DHT22;10303;51.960;8.372;2024-01-30T02:19:00;8.80;99.90
20288;DHT22;10303;51.960;8.372;2024-01-30T02:21:25;8.70;99.90
20288;DHT22;10303;51.960;8.372;2024-01-30T02:23:52;8.70;99.90
20288;DHT22;10303;51.960;8.372;2024-01-30T02:26:20;8.70;99.90
20288;DHT22;10303;51.960;8.372;2024-01-30T02:28:46;8.70;99.90
20288;DHT22;10303;51.960;8.372;2024-01-30T02:31:12;8.80;99.90
20288;DHT22;10303;51.960;8.372;2024-01-30T02:33:38;8.70;99.90
20288;DHT22;10303;51.960;8.372;2024-01-30T02:36:04;8.70;99.90
20288;DHT22;10303;51.960;8.372;2024-01-30T02:38:30;8.70;99.90
20288;DHT22;10303;51.960;8.372;2024-01-30T02:40:56;8.60;99.90
20288;DHT22;10303;51.960;8.372;2024-01-30T02:43:22;8.80;99.90
20288;DHT22;10303;51.960;8.372;2024-01-30T02:45:48;8.60;99.90
20288;DHT22;10303;51.960;8.372;2024-01-30T02:48:14;8.60;99.90
20288;DHT22;10303;51.960;8.372;2024-01-30T02:50:40;8.60;99.90
20288;DHT22;10303;51.960;8.372;2024-01-30T02:53:05;8.60;99.90
20288;DHT22;10303;51.960;8.372;2024-01-30T02:55:32;8.70;99.90
20288;DHT22;10303;51.960;8.372;2024-01-30T02:57:59;8.60;99.90
20288;DHT22;10303;51.960;8.372;2024-01-30T03:00:24;8.60;99.90
20288;DHT22;10303;51.960;8.372;2024-01-30T03:02:50;8.50;99.90
20288;DHT22;10303;51.960;8.372;2024-01-30T03:05:16;8.50;99.90
20288;DHT22;10303;51.960;8.372;2024-01-30T03:07:42;8.50;99.90
20288;DHT22;10303;51.960;8.372;2024-01-30T03:10:08;8.50;99.90
20288;DHT22;10303;51.960;8.372;2024-01-30T03:12:34;8.50;99.90
20288;DHT22;10303;51.960;8.372;2024-01-30T03:15:00;8.50;99.90
20288;DHT22;10303;51.960;8.372;2024-01-30T03:17:26;8.50;99.90
20288;DHT22;10303;51.960;8.372;2024-01-30T03:19:52;8.60;99.90
20288;DHT22;10303;51.960;8.372;2024-01-30T03:22:17;8.50;99.90
20288;DHT22;10303;51.960;8.372;2024-01-30T03:24:43;8.50;99.90
20288;DHT22;10303;51.960;8.372;2024-01-30T03:27:09;8.50;99.90
20288;DHT22;10303;51.960;8.372;2024-01-30T03:29:35;8.50;99.90
20288;DHT22;10303;51.960;8.372;2024-01-30T03:32:01;8.50;99.90
20288;DHT22;10303;51.960;8.372;2024-01-30T03:34:29;8.50;99.90
20288;DHT22;10303;51.960;8.372;2024-01-30T03:36:55;8.50;99.90
20288;DHT22;10303;51.960;8.372;2024-01-30T03:39:21;8.50;99.90
20288;DHT22;10303;51.960;8.372;2024-01-30T03:41:47;8.70;99.90
20288;DHT22;10303;51.960;8.372;2024-01-30T03:44:13;8.60;99.90
20288;DHT22;10303;51.960;8.372;2024-01-30T03:46:38;8.60;99.90
20288;DHT22;10303;51.960;8.372;2024-01-30T03:49:04;8.60;99.90
20288;DHT22;10303;51.960;8.372;2024-01-30T03:51:30;8.60;99.90
20288;DHT22;10303;51.960;8.372;2024-01-30T03:53:56;8.60;99.90
20288;DHT22;10303;51.960;8.372;2024-01-30T03:56:22;8.60;99.90
20288;DHT22;10303;51.960;8.372;2024-01-30T03:58:48;8.60;99.90
20288;DHT22;10303;51.960;8.372;2024-01-30T04:01:14;8.60;99.90
20288;DHT22;10303;51.960;8.372;2024-01-30T04:03:41;8.60;99.90
20288;DHT22;10303;51.960;8.372;2024-01-30T04:06:08;8.70;99.90
20288;DHT22;10303;51.960;8.372;2024-01-30T04:08:34;8.60;99.90
20288;DHT22;10303;51.960;8.372;2024-01-30T04:11:04;8.60;99.90
20288;DHT22;10303;51.960;8.372;2024-01-30T04:13:31;8.60;99.90
20288;DHT22;10303;51.960;8.372;2024-01-30T04:16:02;8.60;99.90
20288;DHT22;10303;51.960;8.372;2024-01-30T04:18:28;8.60;99.90
20288;DHT22;10303;51.960;8.372;2024-01-30T04:20:55;8.60;99.90
20288;DHT22;10303;51.960;8.372;2024-01-30T04:23:21;8.60;99.90
20288;DHT22;10303;51.960;8.372;2024-01-30T04:25:47;8.60;99.90
20288;DHT22;10303;51.960;8.372;2024-01-30T04:28:13;8.70;99.90
20288;DHT22;10303;51.960;8.372;2024-01-30T04:30:39;8.60;99.90
20288;DHT22;10303;51.960;8.372;2024-01-30T04:33:05;8.60;99.90
20288;DHT22;10303;51.960;8.372;2024-01-30T04:35:31;8.60;99.90
20288;DHT22;10303;51.960;8.372;2024-01-30T04:37:57;8.60;99.90
20288;DHT22;10303;51.960;8.372;2024-01-30T04:40:23;8.70;99.90
20288;DHT22;10303;51.960;8.372;2024-01-30T04:42:49;8.60;99.90
20288;DHT22;10303;51.960;8.372;2024-01-30T04:45:15;8.60;99.90
20288;DHT22;10303;51.960;8.372;2024-01-30T04:47:41;8.70;99.90
20288;DHT22;10303;51.960;8.372;2024-01-30T04:50:07;8.70;99.90
20288;DHT22;10303;51.960;8.372;2024-01-30T04:52:34;8.60;99.90
20288;DHT22;10303;51.960;8.372;2024-01-30T04:55:01;8.60;99.90
20288;DHT22;10303;51.960;8.372;2024-01-30T04:57:27;8.70;99.90
20288;DHT22;10303;51.960;8.372;2024-01-30T04:59:53;8.70;99.90
20288;DHT22;10303;51.960;8.372;2024-01-30T05:02:19;8.80;99.90
20288;DHT22;10303;51.960;8.372;2024-01-30T05:04:45;8.70;99.90
20288;DHT22;10303;51.960;8.372;2024-01-30T05:07:11;8.60;99.90
20288;DHT22;10303;51.960;8.372;2024-01-30T05:09:37;8.60;99.90
20288;DHT22;10303;51.960;8.372;2024-01-30T05:12:03;8.70;99.90
20288;DHT22;10303;51.960;8.372;2024-01-30T05:14:29;8.60;99.90
20288;DHT22;10303;51.960;8.372;2024-01-30T05:16:55;8.60;99.90
20288;DHT22;10303;51.960;8.372;2024-01-30T05:19:20;8.80;99.90
20288;DHT22;10303;51.960;8.372;2024-01-30T05:21:49;8.60;99.90
20288;DHT22;10303;51.960;8.372;2024-01-30T05:24:15;8.60;99.90
20288;DHT22;10303;51.960;8.372;2024-01-30T05:26:41;8.70;99.90
20288;DHT22;10303;51.960;8.372;2024-01-30T05:29:07;8.70;99.90
20288;DHT22;10303;51.960;8.372;2024-01-30T05:31:34;8.70;99.90
20288;DHT22;10303;51.960;8.372;2024-01-30T05:34:00;8.70;99.90
20288;DHT22;10303;51.960;8.372;2024-01-30T05:36:26;8.70;99.90
20288;DHT22;10303;51.960;8.372;2024-01-30T05:38:52;8.70;99.90
20288;DHT22;10303;51.960;8.372;2024-01-30T05:41:19;8.90;99.90
20288;DHT22;10303;51.960;8.372;2024-01-30T05:43:45;8.70;99.90
20288;DHT22;10303;51.960;8.372;2024-01-30T05:46:11;8.70;99.90
20288;DHT22;10303;51.960;8.372;2024-01-30T05:48:36;8.70;99.90
20288;DHT22;10303;51.960;8.372;2024-01-30T05:51:02;8.70;99.90
20288;DHT22;10303;51.960;8.372;2024-01-30T05:53:29;8.70;99.90
20288;DHT22;10303;51.960;8.372;2024-01-30T05:55:55;8.70;99.90
20288;DHT22;10303;51.960;8.372;2024-01-30T05:58:21;8.80;99.90
20288;DHT22;10303;51.960;8.372;2024-01-30T06:00:47;8.70;99.90
20288;DHT22;10303;51.960;8.372;2024-01-30T06:03:13;8.80;99.90
20288;DHT22;10303;51.960;8.372;2024-01-30T06:05:39;8.80;99.90
20288;DHT22;10303;51.960;8.372;2024-01-30T06:08:05;8.70;99.90
20288;DHT22;10303;51.960;8.372;2024-01-30T06:10:31;8.80;99.90
20288;DHT22;10303;51.960;8.372;2024-01-30T06:12:57;8.70;99.90
20288;DHT22;10303;51.960;8.372;2024-01-30T06:15:23;8.80;99.90
20288;DHT22;10303;51.960;8.372;2024-01-30T06:17:49;8.80;99.90
20288;DHT22;10303;51.960;8.372;2024-01-30T06:20:14;8.80;99.90
20288;DHT22;10303;51.960;8.372;2024-01-30T06:22:40;8.80;99.90
20288;DHT22;10303;51.960;8.372;2024-01-30T06:25:07;8.90;99.90
20288;DHT22;10303;51.960;8.372;2024-01-30T06:27:33;8.80;99.90
20288;DHT22;10303;51.960;8.372;2024-01-30T06:29:59;8.80;99.90
20288;DHT22;10303;51.960;8.372;2024-01-30T06:32:24;8.80;99.90
20288;DHT22;10303;51.960;8.372;2024-01-30T06:34:50;8.80;99.90
20288;DHT22;10303;51.960;8.372;2024-01-30T06:37:16;8.80;99.90
20288;DHT22;10303;51.960;8.372;2024-01-30T06:39:42;8.80;99.90
20288;DHT22;10303;51.960;8.372;2024-01-30T06:42:08;8.90;99.90
20288;DHT22;10303;51.960;8.372;2024-01-30T06:44:34;8.80;99.90
20288;DHT22;10303;51.960;8.372;2024-01-30T06:47:00;8.80;99.90
20288;DHT22;10303;51.960;8.372;2024-01-30T06:49:26;8.80;99.90
20288;DHT22;10303;51.960;8.372;2024-01-30T06:51:52;8.90;99.90
20288;DHT22;10303;51.960;8.372;2024-01-30T06:54:18;8.80;99.90
20288;DHT22;10303;51.960;8.372;2024-01-30T06:56:43;8.80;99.90
20288;DHT22;10303;51.960;8.372;2024-01-30T06:59:09;8.80;99.90
20288;DHT22;10303;51.960;8.372;2024-01-30T07:01:35;8.80;99.90
20288;DHT22;10303;51.960;8.372;2024-01-30T07:04:01;8.80;99.90
20288;DHT22;10303;51.960;8.372;2024-01-30T07:06:27;8.80;99.90
20288;DHT22;10303;51.960;8.372;2024-01-30T07:08:53;8.80;99.90
20288;DHT22;10303;51.960;8.372;2024-01-30T07:11:22;8.80;99.90
20288;DHT22;10303;51.960;8.372;2024-01-30T07:13:51;8.80;99.90
20288;DHT22;10303;51.960;8.372;2024-01-30T07:16:17;8.80;99.90
20288;DHT22;10303;51.960;8.372;2024-01-30T07:18:43;8.80;99.90
20288;DHT22;10303;51.960;8.372;2024-01-30T07:21:10;8.80;99.90
20288;DHT22;10303;51.960;8.372;2024-01-30T07:23:36;8.80;99.90
20288;DHT22;10303;51.960;8.372;2024-01-30T07:26:08;8.80;99.90
20288;DHT22;10303;51.960;8.372;2024-01-30T07:28:34;8.80;99.90
20288;DHT22;10303;51.960;8.372;2024-01-30T07:31:01;8.80;99.90
20288;DHT22;10303;51.960;8.372;2024-01-30T07:33:27;8.90;99.90
20288;DHT22;10303;51.960;8.372;2024-01-30T07:35:53;8.80;99.90
20288;DHT22;10303;51.960;8.372;2024-01-30T07:38:19;8.80;99.90
20288;DHT22;10303;51.960;8.372;2024-01-30T07:40:45;8.80;99.90
20288;DHT22;10303;51.960;8.372;2024-01-30T07:43:11;8.80;99.90
20288;DHT22;10303;51.960;8.372;2024-01-30T07:45:37;8.80;99.90
20288;DHT22;10303;51.960;8.372;2024-01-30T07:48:05;8.80;99.90
20288;DHT22;10303;51.960;8.372;2024-01-30T07:50:31;8.80;99.90
20288;DHT22;10303;51.960;8.372;2024-01-30T07:52:59;8.80;99.90
20288;DHT22;10303;51.960;8.372;2024-01-30T07:55:26;8.80;99.90
20288;DHT22;10303;51.960;8.372;2024-01-30T07:57:56;8.90;99.90
20288;DHT22;10303;51.960;8.372;2024-01-30T08:00:22;8.80;99.90
20288;DHT22;10303;51.960;8.372;2024-01-30T08:02:48;8.80;99.90
20288;DHT22;10303;51.960;8.372;2024-01-30T08:05:14;8.90;99.90
20288;DHT22;10303;51.960;8.372;2024-01-30T08:07:43;8.90;99.90
20288;DHT22;10303;51.960;8.372;2024-01-30T08:10:11;8.90;99.90
20288;DHT22;10303;51.960;8.372;2024-01-30T08:12:38;8.90;99.90
20288;DHT22;10303;51.960;8.372;2024-01-30T08:15:05;8.90;99.90
20288;DHT22;10303;51.960;8.372;2024-01-30T08:17:31;9.00;99.90
20288;DHT22;10303;51.960;8.372;2024-01-30T08:19:57;9.10;99.90
20288;DHT22;10303;51.960;8.372;2024-01-30T08:22:23;9.00;99.90
20288;DHT22;10303;51.960;8.372;2024-01-30T08:24:49;9.10;99.90
20288;DHT22;10303;51.960;8.372;2024-01-30T08:27:15;9.10;99.90
20288;DHT22;10303;51.960;8.372;2024-01-30T08:29:40;9.10;99.90
20288;DHT22;10303;51.960;8.372;2024-01-30T08:32:07;9.20;99.90
20288;DHT22;10303;51.960;8.372;2024-01-30T08:34:33;9.20;99.90
20288;DHT22;10303;51.960;8.372;2024-01-30T08:36:59;9.30;99.90
20288;DHT22;10303;51.960;8.372;2024-01-30T08:39:25;9.30;99.90
20288;DHT22;10303;51.960;8.372;2024-01-30T08:41:51;9.40;99.90
20288;DHT22;10303;51.960;8.372;2024-01-30T08:44:17;9.60;99.90
20288;DHT22;10303;51.960;8.372;2024-01-30T08:46:46;9.40;99.90
20288;DHT22;10303;51.960;8.372;2024-01-30T08:49:13;9.50;99.90
20288;DHT22;10303;51.960;8.372;2024-01-30T08:51:39;9.50;99.90
20288;DHT22;10303;51.960;8.372;2024-01-30T08:54:05;9.60;99.90
20288;DHT22;10303;51.960;8.372;2024-01-30T08:56:31;9.70;99.90
20288;DHT22;10303;51.960;8.372;2024-01-30T08:58:57;9.70;99.90
20288;DHT22;10303;51.960;8.372;2024-01-30T09:01:23;9.80;99.90
20288;DHT22;10303;51.960;8.372;2024-01-30T09:03:49;9.80;99.90
20288;DHT22;10303;51.960;8.372;2024-01-30T09:06:15;9.90;99.90
20288;DHT22;10303;51.960;8.372;2024-01-30T09:08:40;10.00;99.90
20288;DHT22;10303;51.960;8.372;2024-01-30T09:11:12;10.00;99.90
20288;DHT22;10303;51.960;8.372;2024-01-30T09:13:39;10.20;99.90
20288;DHT22;10303;51.960;8.372;2024-01-30T09:16:05;10.30;99.90
20288;DHT22;10303;51.960;8.372;2024-01-30T09:18:32;10.40;99.90
20288;DHT22;10303;51.960;8.372;2024-01-30T09:20:58;10.50;99.90
20288;DHT22;10303;51.960;8.372;2024-01-30T09:23:25;10.70;99.90
20288;DHT22;10303;51.960;8.372;2024-01-30T09:25:52;10.80;99.90
20288;DHT22;10303;51.960;8.372;2024-01-30T09:28:18;10.90;99.90
20288;DHT22;10303;51.960;8.372;2024-01-30T09:30:44;11.10;99.90
20288;DHT22;10303;51.960;8.372;2024-01-30T09:33:10;11.20;99.90
20288;DHT22;10303;51.960;8.372;2024-01-30T09:35:36;11.40;99.90
20288;DHT22;10303;51.960;8.372;2024-01-30T09:38:02;11.50;99.90
20288;DHT22;10303;51.960;8.372;2024-01-30T09:40:28;11.60;99.90
20288;DHT22;10303;51.960;8.372;2024-01-30T09:42:55;11.70;99.90
20288;DHT22;10303;51.960;8.372;2024-01-30T09:45:25;11.80;99.90
20288;DHT22;10303;51.960;8.372;2024-01-30T09:47:52;12.00;99.90
20288;DHT22;10303;51.960;8.372;2024-01-30T09:50:19;12.10;99.90
20288;DHT22;10303;51.960;8.372;2024-01-30T09:52:46;12.10;99.90
20288;DHT22;10303;51.960;8.372;2024-01-30T09:55:13;12.20;99.90
20288;DHT22;10303;51.960;8.372;2024-01-30T09:57:39;12.30;99.90
20288;DHT22;10303;51.960;8.372;2024-01-30T10:00:07;12.40;99.90
20288;DHT22;10303;51.960;8.372;2024-01-30T10:02:40;12.50;99.90
20288;DHT22;10303;51.960;8.372;2024-01-30T10:05:07;12.60;99.90
20288;DHT22;10303;51.960;8.372;2024-01-30T10:07:33;12.70;99.90
20288;DHT22;10303;51.960;8.372;2024-01-30T10:09:59;12.70;99.90
20288;DHT22;10303;51.960;8.372;2024-01-30T10:12:26;12.80;99.90
20288;DHT22;10303;51.960;8.372;2024-01-30T10:14:52;12.80;99.90
20288;DHT22;10303;51.960;8.372;2024-01-30T10:17:19;12.90;99.90
20288;DHT22;10303;51.960;8.372;2024-01-30T10:19:47;13.00;99.90
20288;DHT22;10303;51.960;8.372;2024-01-30T10:22:12;13.10;99.90
20288;DHT22;10303;51.960;8.372;2024-01-30T10:24:39;13.20;99.90
20288;DHT22;10303;51.960;8.372;2024-01-30T10:27:08;13.30;99.90
20288;DHT22;10303;51.960;8.372;2024-01-30T10:29:34;13.40;99.90
20288;DHT22;10303;51.960;8.372;2024-01-30T10:32:01;13.50;99.90
20288;DHT22;10303;51.960;8.372;2024-01-30T10:34:29;13.60;99.90
20288;DHT22;10303;51.960;8.372;2024-01-30T10:37:08;13.70;99.90
20288;DHT22;10303;51.960;8.372;2024-01-30T10:39:39;13.80;99.90
20288;DHT22;10303;51.960;8.372;2024-01-30T10:42:06;13.90;99.90
20288;DHT22;10303;51.960;8.372;2024-01-30T10:44:48;14.00;99.90
20288;DHT22;10303;51.960;8.372;2024-01-30T10:47:54;14.10;99.90
20288;DHT22;10303;51.960;8.372;2024-01-30T10:50:24;14.30;99.90
20288;DHT22;10303;51.960;8.372;2024-01-30T10:52:51;14.40;99.90
20288;DHT22;10303;51.960;8.372;2024-01-30T10:55:18;14.40;99.90
20288;DHT22;10303;51.960;8.372;2024-01-30T10:57:44;14.50;99.90
20288;DHT22;10303;51.960;8.372;2024-01-30T11:00:13;14.60;99.90
20288;DHT22;10303;51.960;8.372;2024-01-30T11:02:45;14.70;99.90
20288;DHT22;10303;51.960;8.372;2024-01-30T11:05:13;14.70;99.90
20288;DHT22;10303;51.960;8.372;2024-01-30T11:07:41;14.80;99.90
20288;DHT22;10303;51.960;8.372;2024-01-30T11:10:07;14.90;99.90
20288;DHT22;10303;51.960;8.372;2024-01-30T11:12:41;14.90;99.90
20288;DHT22;10303;51.960;8.372;2024-01-30T11:15:10;15.00;99.90
20288;DHT22;10303;51.960;8.372;2024-01-30T11:20:21;15.00;99.90
20288;DHT22;10303;51.960;8.372;2024-01-30T11:22:50;15.10;99.90
20288;DHT22;10303;51.960;8.372;2024-01-30T11:25:20;15.10;99.90
20288;DHT22;10303;51.960;8.372;2024-01-30T11:27:51;15.10;99.90
20288;DHT22;10303;51.960;8.372;2024-01-30T11:30:22;15.20;99.90
20288;DHT22;10303;51.960;8.372;2024-01-30T11:35:40;15.30;99.90
20288;DHT22;10303;51.960;8.372;2024-01-30T11:38:09;15.30;99.90
20288;DHT22;10303;51.960;8.372;2024-01-30T11:40:40;15.40;99.90
20288;DHT22;10303;51.960;8.372;2024-01-30T11:43:07;15.50;99.90
20288;DHT22;10303;51.960;8.372;2024-01-30T11:45:35;15.50;99.90
20288;DHT22;10303;51.960;8.372;2024-01-30T11:48:02;15.60;99.90
20288;DHT22;10303;51.960;8.372;2024-01-30T11:50:33;15.60;99.90
20288;DHT22;10303;51.960;8.372;2024-01-30T11:53:00;15.70;99.90
20288;DHT22;10303;51.960;8.372;2024-01-30T11:55:26;15.70;99.90
20288;DHT22;10303;51.960;8.372;2024-01-30T11:57:56;15.70;99.90
20288;DHT22;10303;51.960;8.372;2024-01-30T12:00:24;15.70;99.90
20288;DHT22;10303;51.960;8.372;2024-01-30T12:02:54;15.80;99.90
20288;DHT22;10303;51.960;8.372;2024-01-30T12:05:26;15.80;99.90
20288;DHT22;10303;51.960;8.372;2024-01-30T12:07:53;15.90;99.90
20288;DHT22;10303;51.960;8.372;2024-01-30T12:10:19;15.90;99.90
20288;DHT22;10303;51.960;8.372;2024-01-30T12:12:51;15.90;99.90
20288;DHT22;10303;51.960;8.372;2024-01-30T12:15:21;15.90;99.90
20288;DHT22;10303;51.960;8.372;2024-01-30T12:17:48;16.00;99.90
20288;DHT22;10303;51.960;8.372;2024-01-30T12:20:17;16.00;99.90
20288;DHT22;10303;51.960;8.372;2024-01-30T12:22:45;16.00;99.90
20288;DHT22;10303;51.960;8.372;2024-01-30T12:25:14;16.10;99.90
20288;DHT22;10303;51.960;8.372;2024-01-30T12:27:45;16.10;99.90
20288;DHT22;10303;51.960;8.372;2024-01-30T12:30:16;16.10;99.90
20288;DHT22;10303;51.960;8.372;2024-01-30T12:32:44;16.20;99.90
20288;DHT22;10303;51.960;8.372;2024-01-30T12:35:15;16.20;99.90
20288;DHT22;10303;51.960;8.372;2024-01-30T12:37:46;16.30;99.90
20288;DHT22;10303;51.960;8.372;2024-01-30T12:40:14;16.30;99.90
20288;DHT22;10303;51.960;8.372;2024-01-30T12:42:41;16.30;99.90
20288;DHT22;10303;51.960;8.372;2024-01-30T12:45:08;16.40;99.90
20288;DHT22;10303;51.960;8.372;2024-01-30T12:47:35;16.30;99.90
20288;DHT22;10303;51.960;8.372;2024-01-30T12:50:01;16.40;99.90
20288;DHT22;10303;51.960;8.372;2024-01-30T12:52:28;16.40;99.90
20288;DHT22;10303;51.960;8.372;2024-01-30T12:54:54;16.40;99.90
20288;DHT22;10303;51.960;8.372;2024-01-30T12:57:20;16.40;99.90
20288;DHT22;10303;51.960;8.372;2024-01-30T12:59:47;16.40;99.90
20288;DHT22;10303;51.960;8.372;2024-01-30T13:02:13;16.40;99.90
20288;DHT22;10303;51.960;8.372;2024-01-30T13:04:40;16.40;99.90
20288;DHT22;10303;51.960;8.372;2024-01-30T13:07:06;16.40;99.90
20288;DHT22;10303;51.960;8.372;2024-01-30T13:09:32;16.40;99.90
20288;DHT22;10303;51.960;8.372;2024-01-30T13:11:59;16.40;99.90
20288;DHT22;10303;51.960;8.372;2024-01-30T13:14:25;16.40;99.90
20288;DHT22;10303;51.960;8.372;2024-01-30T13:16:52;16.50;99.90
20288;DHT22;10303;51.960;8.372;2024-01-30T13:19:18;16.50;99.90
20288;DHT22;10303;51.960;8.372;2024-01-30T13:21:44;16.50;99.90
20288;DHT22;10303;51.960;8.372;2024-01-30T13:24:11;16.40;99.90
20288;DHT22;10303;51.960;8.372;2024-01-30T13:26:36;16.40;99.90
20288;DHT22;10303;51.960;8.372;2024-01-30T13:29:02;16.30;99.90
20288;DHT22;10303;51.960;8.372;2024-01-30T13:31:29;16.30;99.90
20288;DHT22;10303;51.960;8.372;2024-01-30T13:33:55;16.30;99.90
20288;DHT22;10303;51.960;8.372;2024-01-30T13:36:22;16.30;99.90
20288;DHT22;10303;51.960;8.372;2024-01-30T13:38:48;16.30;99.90
20288;DHT22;10303;51.960;8.372;2024-01-30T13:41:14;16.30;99.90
20288;DHT22;10303;51.960;8.372;2024-01-30T13:43:40;16.30;99.90
20288;DHT22;10303;51.960;8.372;2024-01-30T13:46:06;16.30;99.90
20288;DHT22;10303;51.960;8.372;2024-01-30T13:48:32;16.20;99.90
20288;DHT22;10303;51.960;8.372;2024-01-30T13:50:58;16.00;99.90
20288;DHT22;10303;51.960;8.372;2024-01-30T13:53:24;16.00;99.90
20288;DHT22;10303;51.960;8.372;2024-01-30T13:55:49;16.10;99.90
20288;DHT22;10303;51.960;8.372;2024-01-30T13:58:15;16.10;99.90
20288;DHT22;10303;51.960;8.372;2024-01-30T14:00:41;16.10;99.90
20288;DHT22;10303;51.960;8.372;2024-01-30T14:03:07;16.00;99.90
20288;DHT22;10303;51.960;8.372;2024-01-30T14:05:33;15.80;99.90
20288;DHT22;10303;51.960;8.372;2024-01-30T14:07:59;15.70;99.90
20288;DHT22;10303;51.960;8.372;2024-01-30T14:10:26;15.60;99.90
20288;DHT22;10303;51.960;8.372;2024-01-30T14:12:52;15.60;99.90
20288;DHT22;10303;51.960;8.372;2024-01-30T14:15:18;15.60;99.90
20288;DHT22;10303;51.960;8.372;2024-01-30T14:17:44;15.70;99.90
20288;DHT22;10303;51.960;8.372;2024-01-30T14:20:13;15.80;99.90
20288;DHT22;10303;51.960;8.372;2024-01-30T14:22:39;15.70;99.90
20288;DHT22;10303;51.960;8.372;2024-01-30T14:25:05;15.70;99.90
20288;DHT22;10303;51.960;8.372;2024-01-30T14:27:32;15.80;99.90
20288;DHT22;10303;51.960;8.372;2024-01-30T14:29:58;15.80;99.90
20288;DHT22;10303;51.960;8.372;2024-01-30T14:32:24;15.60;99.90
20288;DHT22;10303;51.960;8.372;2024-01-30T14:34:51;15.40;99.90
20288;DHT22;10303;51.960;8.372;2024-01-30T14:37:23;15.20;99.90
20288;DHT22;10303;51.960;8.372;2024-01-30T14:39:49;15.10;99.90
20288;DHT22;10303;51.960;8.372;2024-01-30T14:42:15;15.00;99.90
20288;DHT22;10303;51.960;8.372;2024-01-30T14:44:42;15.20;99.90
20288;DHT22;10303;51.960;8.372;2024-01-30T14:47:08;15.40;99.90
20288;DHT22;10303;51.960;8.372;2024-01-30T14:49:34;15.10;99.90
20288;DHT22;10303;51.960;8.372;2024-01-30T14:52:00;15.10;99.90
20288;DHT22;10303;51.960;8.372;2024-01-30T14:54:27;15.30;99.90
20288;DHT22;10303;51.960;8.372;2024-01-30T14:56:53;15.20;99.90
20288;DHT22;10303;51.960;8.372;2024-01-30T14:59:19;15.10;99.90
20288;DHT22;10303;51.960;8.372;2024-01-30T15:01:45;14.90;99.90
20288;DHT22;10303;51.960;8.372;2024-01-30T15:04:12;15.00;99.90
20288;DHT22;10303;51.960;8.372;2024-01-30T15:06:38;15.00;99.90
20288;DHT22;10303;51.960;8.372;2024-01-30T15:09:05;15.10;99.90
20288;DHT22;10303;51.960;8.372;2024-01-30T15:11:31;15.20;99.90
20288;DHT22;10303;51.960;8.372;2024-01-30T15:13:58;15.00;99.90
20288;DHT22;10303;51.960;8.372;2024-01-30T15:16:24;15.10;99.90
20288;DHT22;10303;51.960;8.372;2024-01-30T15:18:50;15.10;99.90
20288;DHT22;10303;51.960;8.372;2024-01-30T15:21:16;15.20;99.90
20288;DHT22;10303;51.960;8.372;2024-01-30T15:23:48;15.20;99.90
20288;DHT22;10303;51.960;8.372;2024-01-30T15:26:14;15.30;99.90
20288;DHT22;10303;51.960;8.372;2024-01-30T15:28:41;15.30;99.90
20288;DHT22;10303;51.960;8.372;2024-01-30T15:31:07;15.40;99.90
20288;DHT22;10303;51.960;8.372;2024-01-30T15:33:33;15.40;99.90
20288;DHT22;10303;51.960;8.372;2024-01-30T15:36:00;15.40;99.90
20288;DHT22;10303;51.960;8.372;2024-01-30T15:38:26;15.40;99.90
20288;DHT22;10303;51.960;8.372;2024-01-30T15:40:54;15.50;99.90
20288;DHT22;10303;51.960;8.372;2024-01-30T15:43:21;15.50;99.90